Bekkevoort, Belgium
Current Conditions -  °F | °C
As of 5:25 PM on Thursday 23 Oct 2014 (Local Time) from EBDT Reporting Station
Overcast Overcast  
Wind Chill: 55°   Ceiling: 4500
Heat Index: 55°   Visibility: 6mi
Dew Point: 50°   Wind: 7mph
Humidity: 82%   Direction: 200°SSW
Pressure: 30.18"   Gusts: NA
Location:  50.94°N, 4.97°E
Report Text: EBDT 231525Z AUTO 20006KT 9999 OVC045/// 13/10 Q1022 BLU
Loading
Personal Weather Stations






























Interactive Weather Map
Tropical Storm Tracking
New forecast layout! Learn more

10-Day Weather Forecast

Advertisements
Track Severe Weather on mobile